Time;durP1;ratioP1;P1;durP2;ratioP2;P2;SDS_P1;SDS_P2;PMS_P1;PMS_P2;Temp;Humidity;BMP_temperature;BMP_pressure;BME280_temperature;BME280_humidity;BME280_pressure;Samples;Min_cycle;Max_cycle;Signal;HPM_P1;HPM_P2
2023/06/05 00:01:45;;;;;;;9.48;5.45;;;;;;;;;;4983898;28;20052;-85
2023/06/05 00:04:12;;;;;;;8.65;5.75;;;;;;;;;;4970557;28;20052;-85
2023/06/05 00:06:37;;;;;;;10.15;4.97;;;;;;;;;;4997178;28;20048;-85
2023/06/05 00:09:04;;;;;;;8.02;5.45;;;;;;;;;;4985418;28;20724;-85
2023/06/05 00:11:30;;;;;;;7.88;5.70;;;;;;;;;;4960550;28;20048;-85
2023/06/05 00:13:56;;;;;;;7.40;5.47;;;;;;;;;;4997879;28;20130;-85
2023/06/05 00:16:22;;;;;;;11.80;5.57;;;;;;;;;;4964555;28;20124;-87
2023/06/05 00:18:48;;;;;;;7.40;5.15;;;;;;;;;;4964445;28;20112;-85
2023/06/05 00:21:19;;;;;;;9.95;5.65;;;10.80;99.90;;;;;;4982813;28;20532;-85
2023/06/05 00:23:44;;;;;;;9.35;6.97;;;;;;;;;;4970237;28;20092;-87
2023/06/05 00:26:10;;;;;;;8.73;5.63;;;;;;;;;;4955010;28;20564;-85
2023/06/05 00:28:38;;;;;;;8.57;6.00;;;;;;;;;;4967736;28;20045;-85
2023/06/05 00:31:05;;;;;;;7.90;5.47;;;;;;;;;;4967511;28;20533;-85
2023/06/05 00:33:31;;;;;;;5.38;4.13;;;;;;;;;;4990077;28;20035;-85
2023/06/05 00:35:57;;;;;;;6.13;5.28;;;;;;;;;;4962901;28;20042;-85
2023/06/05 00:38:23;;;;;;;6.10;4.63;;;;;;;;;;4971074;28;20112;-85
2023/06/05 00:40:49;;;;;;;5.70;5.00;;;;;;;;;;5002223;28;20535;-85
2023/06/05 00:43:15;;;;;;;5.97;3.40;;;;;;;;;;4969384;28;20078;-85
2023/06/05 00:45:42;;;;;;;4.20;3.80;;;;;;;;;;4996854;28;20613;-85
2023/06/05 00:48:08;;;;;;;4.03;3.13;;;;;;;;;;4972023;28;20940;-85
2023/06/05 00:50:34;;;;;;;5.88;3.70;;;;;;;;;;4970460;28;20142;-85
2023/06/05 00:53:04;;;;;;;4.18;3.78;;;;;;;;;;4963657;28;20041;-85
2023/06/05 00:55:30;;;;;;;5.60;4.22;;;;;;;;;;5001802;28;20034;-85
2023/06/05 00:57:57;;;;;;;4.05;3.55;;;;;;;;;;4971311;28;20041;-85
2023/06/05 01:00:23;;;;;;;4.40;3.08;;;;;;;;;;4980246;28;20129;-85
2023/06/05 01:02:53;;;;;;;3.40;2.72;;;;;;;;;;4984637;28;20574;-85
2023/06/05 01:05:19;;;;;;;4.55;3.22;;;;;;;;;;4974634;28;20081;-85
2023/06/05 01:07:48;;;;;;;4.82;2.63;;;;;;;;;;4976102;28;20141;-85
2023/06/05 01:10:14;;;;;;;3.67;3.05;;;;;;;;;;4972318;28;20049;-85
2023/06/05 01:13:19;;;;;;;4.18;3.53;;;10.20;99.90;;;;;;4968354;28;20042;-85
2023/06/05 01:15:46;;;;;;;4.30;3.70;;;10.40;99.90;;;;;;4980993;28;20046;-85
2023/06/05 01:18:12;;;;;;;4.55;3.60;;;;;;;;;;4966355;28;20034;-85
2023/06/05 01:20:38;;;;;;;7.47;5.25;;;;;;;;;;4973163;28;20038;-86
2023/06/05 01:23:05;;;;;;;7.70;4.97;;;;;;;;;;4985590;28;20404;-85
2023/06/05 01:25:32;;;;;;;8.80;5.65;;;;;;;;;;4974806;28;20045;-85
2023/06/05 01:27:59;;;;;;;5.55;4.90;;;;;;;;;;4997787;28;20042;-86
2023/06/05 01:30:32;;;;;;;6.47;5.43;;;;;;;;;;4975313;28;20099;-87
2023/06/05 01:33:34;;;;;;;6.63;5.10;;;10.00;99.90;;;;;;4992037;28;20052;-85
2023/06/05 01:36:04;;;;;;;7.78;5.38;;;10.20;99.90;;;;;;4986082;28;20042;-85
2023/06/05 01:38:34;;;;;;;8.80;6.45;;;;;;;;;;4978066;28;20065;-85
2023/06/05 01:41:00;;;;;;;9.93;6.07;;;;;;;;;;4991761;28;20064;-85
2023/06/05 01:43:27;;;;;;;10.82;6.53;;;;;;;;;;4991769;28;20128;-85
2023/06/05 01:45:53;;;;;;;9.48;6.60;;;;;;;;;;4991028;28;20141;-85
2023/06/05 01:48:19;;;;;;;8.35;6.97;;;;;;;;;;4983445;28;20516;-86
2023/06/05 01:50:45;;;;;;;8.50;6.68;;;;;;;;;;4974401;28;20042;-85
2023/06/05 01:53:12;;;;;;;9.02;7.63;;;;;;;;;;4967089;28;20046;-85
2023/06/05 01:55:40;;;;;;;9.57;6.43;;;;;;;;;;4987713;28;20044;-85
2023/06/05 01:58:06;;;;;;;9.35;6.32;;;;;;;;;;4988210;28;20050;-85
2023/06/05 02:00:35;;;;;;;9.35;6.53;;;;;;;;;;4969639;28;20034;-85
2023/06/05 02:03:01;;;;;;;8.63;6.55;;;;;;;;;;5002026;28;20034;-85
2023/06/05 02:05:29;;;;;;;12.65;7.55;;;;;;;;;;4981167;28;20112;-85
2023/06/05 02:07:58;;;;;;;8.70;7.13;;;;;;;;;;4971615;28;20049;-87
2023/06/05 02:10:24;;;;;;;12.15;7.15;;;;;;;;;;4983384;28;20077;-85
2023/06/05 02:12:50;;;;;;;9.77;7.70;;;;;;;;;;4990651;28;20045;-86
2023/06/05 02:15:16;;;;;;;11.90;8.15;;;;;;;;;;4982371;28;20479;-86
2023/06/05 02:17:50;;;;;;;11.55;7.53;;;10.30;99.90;;;;;;5006845;28;20054;-86
2023/06/05 02:20:16;;;;;;;9.82;7.60;;;;;;;;;;4990574;28;20042;-85
2023/06/05 02:22:42;;;;;;;12.50;7.15;;;;;;;;;;4965623;28;20066;-85
2023/06/05 02:25:10;;;;;;;10.68;6.82;;;;;;;;;;4986569;28;20493;-85
2023/06/05 02:27:36;;;;;;;9.50;6.90;;;;;;;;;;4994856;28;20129;-84
2023/06/05 02:30:02;;;;;;;13.40;7.75;;;;;;;;;;4983906;28;20522;-85
2023/06/05 02:32:29;;;;;;;9.30;7.35;;;;;;;;;;4977377;28;20049;-85
2023/06/05 02:34:58;;;;;;;10.98;7.78;;;;;;;;;;4984080;28;20045;-85
2023/06/05 02:37:26;;;;;;;9.70;7.55;;;;;;;;;;4983622;28;20073;-84
2023/06/05 02:39:52;;;;;;;10.30;7.85;;;;;;;;;;4982668;28;20069;-86
2023/06/05 02:42:18;;;;;;;10.50;7.63;;;;;;;;;;4985001;28;20414;-85
2023/06/05 02:44:45;;;;;;;12.13;7.65;;;;;;;;;;4961949;28;20480;-85
2023/06/05 02:47:11;;;;;;;12.63;7.80;;;;;;;;;;4980704;28;20511;-85
2023/06/05 02:49:37;;;;;;;11.32;8.15;;;;;;;;;;4985763;28;20046;-85
2023/06/05 02:52:04;;;;;;;13.27;8.48;;;10.40;99.90;;;;;;4972464;28;20123;-86
2023/06/05 02:54:30;;;;;;;11.02;7.68;;;;;;;;;;4998460;28;20196;-84
2023/06/05 02:57:00;;;;;;;13.07;8.60;;;;;;;;;;5004735;28;20041;-85
2023/06/05 02:59:27;;;;;;;11.07;8.07;;;;;;;;;;4990249;28;20172;-85
2023/06/05 03:01:53;;;;;;;10.20;7.93;;;;;;;;;;4980285;28;20046;-85
2023/06/05 03:04:21;;;;;;;12.38;8.32;;;;;;;;;;4973994;28;20041;-85
2023/06/05 03:06:53;;;;;;;12.23;8.95;;;;;;;;;;4972011;28;20038;-85
2023/06/05 03:09:19;;;;;;;12.15;7.88;;;;;;;;;;4999799;28;20050;-85
2023/06/05 03:11:45;;;;;;;12.25;7.97;;;;;;;;;;4967634;28;20045;-85
2023/06/05 03:14:11;;;;;;;10.70;8.48;;;;;;;;;;4977724;28;20042;-86
2023/06/05 03:16:41;;;;;;;10.25;8.20;;;;;;;;;;4972529;28;20050;-85
2023/06/05 03:19:08;;;;;;;10.80;8.50;;;;;;;;;;4983476;28;20123;-85
2023/06/05 03:21:35;;;;;;;11.70;8.45;;;;;;;;;;4967575;28;20049;-87
2023/06/05 03:24:01;;;;;;;12.48;8.23;;;;;;;;;;4983628;28;20042;-86
2023/06/05 03:26:28;;;;;;;10.90;8.07;;;;;;;;;;4965372;28;20575;-85
2023/06/05 03:28:54;;;;;;;11.82;8.50;;;;;;;;;;5002353;28;20038;-85
2023/06/05 03:31:20;;;;;;;12.40;8.68;;;;;;;;;;4986485;28;20042;-85
2023/06/05 03:33:46;;;;;;;13.98;8.80;;;;;;;;;;4973307;28;20045;-85
2023/06/05 03:36:15;;;;;;;12.05;8.00;;;;;;;;;;4987795;28;20056;-85
2023/06/05 03:38:41;;;;;;;15.55;8.88;;;;;;;;;;4971416;28;20050;-85
2023/06/05 03:41:07;;;;;;;13.52;8.75;;;;;;;;;;4968828;28;20053;-85
2023/06/05 03:43:33;;;;;;;13.02;8.88;;;;;;;;;;4986027;28;20134;-85
2023/06/05 03:45:59;;;;;;;12.52;8.23;;;;;;;;;;4984744;28;20042;-85
2023/06/05 03:48:26;;;;;;;13.77;8.30;;;;;;;;;;4981154;28;20049;-85
2023/06/05 03:50:53;;;;;;;11.60;8.20;;;;;;;;;;4980439;28;20070;-85
2023/06/05 03:53:19;;;;;;;13.57;8.45;;;;;;;;;;4982902;28;20049;-85
2023/06/05 03:55:46;;;;;;;13.63;8.88;;;;;;;;;;4970218;28;20121;-85
2023/06/05 03:58:16;;;;;;;13.80;9.13;;;;;;;;;;4967070;28;20053;-86
2023/06/05 04:00:46;;;;;;;11.18;8.25;;;;;;;;;;4987733;28;20041;-85
2023/06/05 04:03:12;;;;;;;13.15;8.30;;;10.40;99.90;;;;;;4973056;28;20116;-88
2023/06/05 04:05:39;;;;;;;14.73;9.60;;;;;;;;;;4971720;28;20539;-85
2023/06/05 04:08:09;;;;;;;12.80;8.60;;;;;;;;;;4989493;28;20037;-85
2023/06/05 04:10:35;;;;;;;11.40;7.95;;;;;;;;;;4989397;28;20046;-85
2023/06/05 04:13:01;;;;;;;11.55;8.65;;;;;;;;;;4973399;28;20034;-85
2023/06/05 04:15:27;;;;;;;12.55;9.25;;;;;;;;;;4980541;28;20042;-86
2023/06/05 04:17:53;;;;;;;16.77;9.05;;;;;;;;;;4985295;28;20038;-86
2023/06/05 04:20:20;;;;;;;12.23;8.57;;;;;;;;;;4982832;28;20050;-85
2023/06/05 04:22:46;;;;;;;11.70;8.40;;;;;;;;;;4970570;28;20129;-85
2023/06/05 04:25:12;;;;;;;12.95;9.48;;;;;;;;;;4972620;28;20060;-87
2023/06/05 04:27:39;;;;;;;13.27;8.95;;;;;;;;;;4971278;28;21061;-86
2023/06/05 04:30:08;;;;;;;12.10;8.45;;;;;;;;;;4967481;28;20667;-85
2023/06/05 04:32:37;;;;;;;11.52;8.98;;;;;;;;;;4986865;28;20042;-86
2023/06/05 04:35:03;;;;;;;13.68;8.10;;;11.00;99.90;;;;;;4972581;28;20084;-85
2023/06/05 04:37:29;;;;;;;13.60;8.63;;;;;;;;;;4965605;28;20065;-85
2023/06/05 04:39:56;;;;;;;16.65;9.43;;;;;;;;;;4969298;28;20121;-85
2023/06/05 04:42:22;;;;;;;14.32;9.25;;;;;;;;;;4986609;28;20837;-86
2023/06/05 04:45:00;;;;;;;14.40;8.95;;;11.20;99.90;;;;;;4973096;28;20046;-85
2023/06/05 04:47:26;;;;;;;15.35;9.98;;;;;;;;;;4969147;28;20048;-85
2023/06/05 04:49:53;;;;;;;14.30;9.98;;;;;;;;;;4969084;28;20050;-85
2023/06/05 04:52:23;;;;;;;15.57;10.27;;;;;;;;;;4976088;28;20048;-86
2023/06/05 04:54:49;;;;;;;15.98;10.07;;;;;;;;;;4976112;28;20786;-85
2023/06/05 04:57:19;;;;;;;16.00;10.30;;;;;;;;;;4967710;28;20071;-86
2023/06/05 04:59:45;;;;;;;13.38;9.63;;;;;;;;;;5000023;28;20065;-85
2023/06/05 05:02:12;;;;;;;14.10;10.43;;;;;;;;;;4984879;28;20511;-86
2023/06/05 05:04:38;;;;;;;13.75;10.50;;;;;;;;;;4974978;28;20048;-87
2023/06/05 05:07:04;;;;;;;14.57;11.00;;;;;;;;;;4988306;28;20041;-86
2023/06/05 05:09:31;;;;;;;15.48;10.18;;;;;;;;;;4967490;28;20061;-85
2023/06/05 05:11:57;;;;;;;14.20;10.00;;;;;;;;;;4988559;28;20637;-85
2023/06/05 05:14:27;;;;;;;16.60;10.77;;;;;;;;;;4987784;28;20050;-85
2023/06/05 05:16:53;;;;;;;17.77;10.38;;;;;;;;;;4991803;28;20065;-87
2023/06/05 05:19:19;;;;;;;14.93;10.15;;;;;;;;;;4969128;28;20408;-85
2023/06/05 05:21:48;;;;;;;11.25;8.82;;;;;;;;;;4973327;28;20385;-86
2023/06/05 05:24:15;;;;;;;15.85;8.80;;;;;;;;;;4975570;28;20049;-85
2023/06/05 05:26:41;;;;;;;14.77;9.82;;;;;;;;;;4987465;28;20077;-85
2023/06/05 05:29:07;;;;;;;25.33;9.75;;;;;;;;;;4967889;28;20133;-85
2023/06/05 05:31:33;;;;;;;13.82;9.57;;;;;;;;;;4976412;28;20037;-86
2023/06/05 05:33:59;;;;;;;13.43;8.88;;;;;;;;;;4987725;28;20045;-85
2023/06/05 05:36:28;;;;;;;15.35;9.15;;;;;;;;;;4986124;28;20401;-86
2023/06/05 05:38:54;;;;;;;14.35;9.73;;;;;;;;;;4974919;28;20045;-85
2023/06/05 05:41:21;;;;;;;14.75;9.75;;;;;;;;;;4979844;28;20120;-86
2023/06/05 05:43:47;;;;;;;11.30;8.20;;;;;;;;;;4971794;28;20049;-86
2023/06/05 05:46:13;;;;;;;13.88;9.38;;;;;;;;;;4968816;28;20084;-85
2023/06/05 05:48:39;;;;;;;15.93;8.90;;;;;;;;;;5002984;28;20108;-86
2023/06/05 05:51:06;;;;;;;12.05;8.63;;;;;;;;;;4966097;28;20037;-86
2023/06/05 05:53:32;;;;;;;10.10;7.80;;;;;;;;;;4974882;28;20042;-85
2023/06/05 05:55:59;;;;;;;11.48;7.10;;;;;;;;;;4989003;28;20030;-85
2023/06/05 05:58:25;;;;;;;11.57;6.53;;;;;;;;;;4991569;28;20071;-85
2023/06/05 06:00:51;;;;;;;10.15;6.53;;;;;;;;;;4985557;28;20560;-86
2023/06/05 06:03:17;;;;;;;8.10;6.47;;;;;;;;;;5002071;28;20049;-86
2023/06/05 06:05:44;;;;;;;8.63;6.40;;;;;;;;;;4972797;28;20042;-85
2023/06/05 06:08:11;;;;;;;7.32;5.38;;;;;;;;;;4989034;28;20054;-86
2023/06/05 06:10:37;;;;;;;6.70;4.50;;;;;;;;;;4986645;28;20492;-86
2023/06/05 06:13:04;;;;;;;7.63;3.47;;;;;;;;;;4997040;28;20042;-86
2023/06/05 06:15:30;;;;;;;5.15;3.95;;;;;;;;;;4987498;28;20455;-86
2023/06/05 06:17:56;;;;;;;5.50;3.60;;;;;;;;;;4975160;28;20151;-86
2023/06/05 06:20:23;;;;;;;5.38;3.28;;;;;;;;;;4974911;28;20053;-85
2023/06/05 06:22:49;;;;;;;3.20;2.30;;;;;;;;;;4986997;28;20096;-86
2023/06/05 06:25:15;;;;;;;5.55;2.53;;;;;;;;;;4977134;28;20415;-87
2023/06/05 06:27:43;;;;;;;5.55;2.53;;;15.20;99.90;;;;;;5002121;28;20127;-84
2023/06/05 06:30:10;;;;;;;3.58;2.40;;;;;;;;;;4971473;28;20049;-86
2023/06/05 06:32:36;;;;;;;4.57;2.60;;;;;;;;;;4970832;28;20112;-84
2023/06/05 06:35:02;;;;;;;3.83;2.28;;;16.50;99.90;;;;;;4975554;28;20053;-84
2023/06/05 06:37:28;;;;;;;3.50;2.15;;;;;;;;;;4990066;28;20050;-87
2023/06/05 06:39:53;;;;;;;3.17;2.20;;;16.20;99.90;;;;;;4975622;28;20052;-83
2023/06/05 06:42:20;;;;;;;7.68;2.10;;;;;;;;;;4988002;28;20492;-85
2023/06/05 06:44:46;;;;;;;4.43;2.30;;;;;;;;;;4988560;28;20038;-89
2023/06/05 06:47:12;;;;;;;3.25;2.00;;;;;;;;;;4974467;28;20046;-87
2023/06/05 06:49:39;;;;;;;3.55;2.22;;;;;;;;;;4985980;28;20045;-86
2023/06/05 06:52:05;;;;;;;4.75;2.50;;;;;;;;;;4973903;28;20045;-88
2023/06/05 06:54:32;;;;;;;3.13;2.30;;;;;;;;;;4974265;28;20471;-87
2023/06/05 06:56:58;;;;;;;3.78;2.28;;;;;;;;;;4976981;28;20046;-87
2023/06/05 06:59:24;;;;;;;9.30;2.63;;;;;;;;;;4970732;28;20085;-88
2023/06/05 07:02:14;;;;;;;3.53;2.40;;;15.10;99.90;;;;;;4976240;28;20096;-87
2023/06/05 07:04:43;;;;;;;3.92;2.60;;;15.10;99.90;;;;;;4975557;28;20088;-87
2023/06/05 07:07:17;;;;;;;3.63;2.78;;;15.00;99.90;;;;;;4980595;28;20057;-88
2023/06/05 07:09:44;;;;;;;3.95;2.88;;;15.00;99.90;;;;;;4963800;28;20045;-87
2023/06/05 07:12:11;;;;;;;4.78;2.60;;;15.00;99.90;;;;;;4971827;28;20072;-87
2023/06/05 07:14:38;;;;;;;3.97;2.30;;;;;;;;;;4978939;28;20495;-86
2023/06/05 07:17:04;;;;;;;4.47;2.83;;;;;;;;;;4970017;28;20491;-87
2023/06/05 07:19:30;;;;;;;3.35;2.50;;;;;;;;;;4985160;28;20049;-86
2023/06/05 07:21:57;;;;;;;4.97;2.58;;;;;;;;;;4987502;28;20087;-87
2023/06/05 07:24:24;;;;;;;4.60;2.83;;;;;;;;;;4989876;28;20113;-87
2023/06/05 07:26:51;;;;;;;6.38;3.08;;;;;;;;;;4974474;28;20682;-86
2023/06/05 07:29:18;;;;;;;3.47;2.60;;;;;;;;;;4973064;28;20077;-86
2023/06/05 07:31:44;;;;;;;4.38;2.88;;;;;;;;;;4973942;28;20419;-86
2023/06/05 07:34:12;;;;;;;5.07;2.28;;;;;;;;;;4974508;28;20752;-87
2023/06/05 07:36:38;;;;;;;6.53;3.70;;;;;;;;;;5025008;28;20532;-87
2023/06/05 07:39:05;;;;;;;5.68;3.15;;;;;;;;;;4974251;28;20048;-87
2023/06/05 07:41:31;;;;;;;6.18;2.45;;;;;;;;;;4973203;28;20325;-87
2023/06/05 07:43:57;;;;;;;3.92;2.78;;;15.00;99.90;;;;;;4973496;28;20049;-87
2023/06/05 07:46:23;;;;;;;3.90;2.88;;;;;;;;;;4990099;28;20045;-88
2023/06/05 07:48:49;;;;;;;9.93;3.35;;;;;;;;;;4990489;28;20046;-87
2023/06/05 07:51:18;;;;;;;3.42;2.38;;;;;;;;;;4961009;28;20499;-87
2023/06/05 07:53:47;;;;;;;4.53;2.40;;;;;;;;;;4986565;28;20040;-87
2023/06/05 07:56:13;;;;;;;4.18;2.85;;;;;;;;;;4973966;28;20042;-86
2023/06/05 07:58:41;;;;;;;3.60;2.42;;;;;;;;;;4990160;28;20128;-87
2023/06/05 08:01:07;;;;;;;5.00;3.08;;;;;;;;;;4990328;28;20052;-87
2023/06/05 08:03:34;;;;;;;6.45;3.40;;;;;;;;;;4990278;28;20411;-87
2023/06/05 08:06:01;;;;;;;3.72;3.00;;;;;;;;;;4991221;28;20042;-86
2023/06/05 08:08:27;;;;;;;4.47;3.58;;;;;;;;;;4977206;28;20064;-87
2023/06/05 08:10:53;;;;;;;4.95;2.78;;;;;;;;;;4973853;28;20573;-87
2023/06/05 08:13:19;;;;;;;5.45;3.55;;;;;;;;;;4973522;28;20046;-86
2023/06/05 08:15:45;;;;;;;4.43;2.80;;;;;;;;;;4973259;28;20045;-88
2023/06/05 08:18:11;;;;;;;6.07;2.97;;;;;;;;;;4989536;28;20049;-90
2023/06/05 08:20:38;;;;;;;7.72;3.70;;;;;;;;;;4974179;28;20412;-91
2023/06/05 08:23:05;;;;;;;4.55;3.13;;;;;;;;;;4974046;28;20125;-86
2023/06/05 08:25:31;;;;;;;6.15;3.55;;;;;;;;;;4986927;28;20572;-86
2023/06/05 08:27:57;;;;;;;6.97;3.63;;;;;;;;;;4994494;28;20648;-88
2023/06/05 08:30:23;;;;;;;5.03;3.20;;;;;;;;;;4968219;28;20053;-86
2023/06/05 08:32:49;;;;;;;3.72;2.85;;;;;;;;;;4988061;28;20119;-89
2023/06/05 08:35:15;;;;;;;4.85;3.03;;;15.70;99.90;;;;;;4992238;28;20045;-88
2023/06/05 08:37:41;;;;;;;5.65;3.00;;;;;;;;;;4973593;28;20415;-86
2023/06/05 08:40:10;;;;;;;6.22;3.70;;;;;;;;;;4972085;28;20128;-87
2023/06/05 08:42:37;;;;;;;5.32;2.80;;;;;;;;;;4972615;28;20085;-87
2023/06/05 08:45:04;;;;;;;5.47;2.83;;;;;;;;;;4989352;28;20042;-89
2023/06/05 08:47:31;;;;;;;4.55;2.95;;;;;;;;;;4989047;28;20400;-87
2023/06/05 08:49:57;;;;;;;3.85;3.05;;;;;;;;;;4989277;28;20455;-88
2023/06/05 08:52:24;;;;;;;3.25;2.75;;;;;;;;;;4990093;28;20042;-86
2023/06/05 08:54:50;;;;;;;6.60;3.33;;;;;;;;;;4985784;28;20042;-88
2023/06/05 08:57:16;;;;;;;3.85;3.00;;;;;;;;;;4984718;28;20033;-92
2023/06/05 08:59:42;;;;;;;4.10;3.00;;;;;;;;;;4972530;28;20049;-86
2023/06/05 09:02:09;;;;;;;4.63;3.28;;;15.80;99.90;;;;;;4989359;28;20046;-88
2023/06/05 09:04:36;;;;;;;4.10;2.65;;;;;;;;;;4992608;28;20164;-87
2023/06/05 09:07:03;;;;;;;4.95;3.50;;;;;;;;;;4988685;28;20046;-86
2023/06/05 09:09:29;;;;;;;6.07;3.05;;;;;;;;;;4971760;28;20042;-86
2023/06/05 09:12:02;;;;;;;6.25;3.80;;;;;;;;;;4986091;28;20041;-86
2023/06/05 09:14:30;;;;;;;5.82;3.95;;;;;;;;;;4993415;28;20518;-88
2023/06/05 09:16:56;;;;;;;4.65;3.08;;;;;;;;;;4984122;28;20034;-86
2023/06/05 09:19:27;;;;;;;3.63;2.92;;;;;;;;;;4973663;28;20523;-89
2023/06/05 09:21:54;;;;;;;4.78;3.17;;;;;;;;;;4990738;28;20446;-86
2023/06/05 09:24:22;;;;;;;4.78;2.75;;;16.60;99.90;;;;;;4980058;28;20460;-87
2023/06/05 09:26:48;;;;;;;4.40;3.65;;;;;;;;;;5003152;28;20046;-86
2023/06/05 09:29:23;;;;;;;4.60;3.45;;;16.70;99.90;;;;;;5001644;28;20058;-86
2023/06/05 09:31:50;;;;;;;10.50;3.80;;;16.60;99.90;;;;;;4977038;28;20042;-86
2023/06/05 09:34:54;;;;;;;5.07;4.25;;;16.70;99.90;;;;;;4974735;28;20083;-88
2023/06/05 09:37:32;;;;;;;7.55;4.00;;;16.70;99.90;;;;;;4970818;28;20056;-87
2023/06/05 09:39:58;;;;;;;5.88;3.35;;;;;;;;;;4988099;28;20642;-87
2023/06/05 09:42:34;;;;;;;4.85;3.63;;;16.80;99.90;;;;;;4978300;28;20041;-87
2023/06/05 09:45:01;;;;;;;5.22;3.53;;;16.90;99.90;;;;;;4988885;28;20037;-86
2023/06/05 09:47:27;;;;;;;5.00;3.83;;;;;;;;;;4975085;28;20046;-87
2023/06/05 09:49:54;;;;;;;5.22;3.30;;;;;;;;;;4989256;28;20602;-87
2023/06/05 09:52:20;;;;;;;5.20;3.42;;;;;;;;;;4991999;28;20041;-87
2023/06/05 09:54:47;;;;;;;5.70;4.00;;;;;;;;;;4992120;28;20410;-86
2023/06/05 09:57:14;;;;;;;7.07;4.00;;;17.30;99.90;;;;;;4977823;28;20088;-87
2023/06/05 09:59:51;;;;;;;5.50;3.72;;;17.10;99.90;;;;;;4984097;28;20061;-88
2023/06/05 10:02:19;;;;;;;6.57;3.90;;;17.00;99.90;;;;;;4986637;28;20049;-86
2023/06/05 10:04:46;;;;;;;4.78;3.67;;;;;;;;;;4990146;28;20049;-86
2023/06/05 10:07:12;;;;;;;7.55;4.15;;;;;;;;;;4991789;28;20042;-87
2023/06/05 10:09:39;;;;;;;6.07;3.42;;;;;;;;;;4993352;28;20033;-87
2023/06/05 10:12:05;;;;;;;7.03;3.70;;;;;;;;;;4988997;28;20053;-87
2023/06/05 10:14:31;;;;;;;8.27;3.83;;;;;;;;;;4981157;28;20090;-87
2023/06/05 10:16:58;;;;;;;5.35;3.45;;;;;;;;;;4974354;28;20041;-87
2023/06/05 10:19:24;;;;;;;5.13;3.70;;;;;;;;;;4975642;28;20077;-88
2023/06/05 10:21:51;;;;;;;7.13;3.63;;;;;;;;;;4980184;28;20049;-87
2023/06/05 10:24:30;;;;;;;7.80;4.03;;;17.70;99.90;;;;;;4991874;28;20046;-87
2023/06/05 10:27:12;;;;;;;7.32;4.65;;;17.60;99.90;;;;;;4972415;28;20038;-87
2023/06/05 10:30:15;;;;;;;6.22;3.92;;;17.60;99.90;;;;;;4988359;28;20034;-86
2023/06/05 10:32:41;;;;;;;6.03;3.85;;;;;;;;;;4977580;28;20038;-88
2023/06/05 10:35:07;;;;;;;5.97;3.50;;;;;;;;;;4976444;28;20041;-87
2023/06/05 10:37:48;;;;;;;5.93;3.45;;;17.60;99.90;;;;;;4973788;28;20058;-91
2023/06/05 10:40:16;;;;;;;9.13;4.05;;;17.70;99.90;;;;;;4989248;28;20089;-87
2023/06/05 10:42:42;;;;;;;5.90;3.97;;;;;;;;;;5005777;28;20060;-86
2023/06/05 10:45:09;;;;;;;5.93;3.72;;;17.80;99.90;;;;;;4974533;28;20089;-85
2023/06/05 10:47:35;;;;;;;6.88;3.63;;;;;;;;;;4977879;28;20041;-86
2023/06/05 10:50:19;;;;;;;5.30;3.30;;;18.00;99.90;;;;;;4978988;28;20042;-87
2023/06/05 10:52:49;;;;;;;6.13;3.55;;;18.00;99.90;;;;;;4979540;28;20053;-86
2023/06/05 10:55:15;;;;;;;5.35;3.53;;;;;;;;;;4973684;28;20679;-86
2023/06/05 10:58:08;;;;;;;5.13;3.67;;;18.10;99.90;;;;;;4976914;28;20042;-86
2023/06/05 11:00:34;;;;;;;4.18;2.67;;;;;;;;;;4966664;28;20480;-86
2023/06/05 11:03:01;;;;;;;5.22;3.35;;;;;;;;;;4980979;28;20342;-86
2023/06/05 11:05:27;;;;;;;4.65;3.17;;;;;;;;;;4974977;28;20046;-86
2023/06/05 11:08:14;;;;;;;5.38;3.50;;;18.20;99.90;;;;;;4990659;28;20133;-89
2023/06/05 11:11:02;;;;;;;5.60;3.33;;;18.30;99.90;;;;;;4974988;28;20499;-87
2023/06/05 11:13:57;;;;;;;6.30;3.00;;;18.30;99.90;;;;;;4974654;28;20046;-85
2023/06/05 11:16:31;;;;;;;4.35;3.08;;;18.20;99.90;;;;;;4977248;28;20559;-85
2023/06/05 11:19:15;;;;;;;6.30;3.03;;;18.50;99.90;;;;;;5000894;28;20073;-85
2023/06/05 11:22:11;;;;;;;7.17;3.87;;;17.80;99.90;;;;;;4974003;28;20042;-86
2023/06/05 11:24:37;;;;;;;8.27;3.20;;;;;;;;;;5003086;28;20049;-85
2023/06/05 11:27:08;;;;;;;6.50;3.50;;;18.20;99.90;;;;;;4974819;28;20522;-86
2023/06/05 11:29:35;;;;;;;4.88;3.45;;;;;;;;;;5004260;28;20033;-84
2023/06/05 11:32:01;;;;;;;5.45;3.50;;;;;;;;;;4989392;28;20096;-86
2023/06/05 11:34:29;;;;;;;4.10;3.05;;;;;;;;;;5008761;28;20052;-88
2023/06/05 11:36:55;;;;;;;3.90;3.00;;;;;;;;;;4977428;28;20478;-87
2023/06/05 11:39:21;;;;;;;5.63;3.00;;;;;;;;;;5007336;28;20050;-86
2023/06/05 11:41:50;;;;;;;4.47;2.97;;;18.60;99.90;;;;;;4974085;28;20427;-85
2023/06/05 11:44:16;;;;;;;5.18;3.50;;;;;;;;;;4974328;28;20046;-86
2023/06/05 11:46:43;;;;;;;6.65;3.50;;;18.70;99.90;;;;;;4971830;28;20088;-85
2023/06/05 11:49:23;;;;;;;6.90;3.70;;;18.60;99.90;;;;;;4976668;28;20073;-84
2023/06/05 11:51:49;;;;;;;4.25;2.85;;;18.60;99.90;;;;;;4969316;28;20050;-84
2023/06/05 11:54:34;;;;;;;6.95;3.88;;;18.70;99.90;;;;;;4978879;28;20096;-84
2023/06/05 11:57:12;;;;;;;8.20;3.75;;;18.70;99.90;;;;;;4968920;28;20061;-84
2023/06/05 11:59:37;;;;;;;9.00;3.22;;;18.80;99.90;;;;;;4974906;28;20038;-84
2023/06/05 12:02:04;;;;;;;4.72;3.35;;;18.60;99.90;;;;;;4976113;28;20073;-85
2023/06/05 12:04:33;;;;;;;6.13;3.85;;;18.90;99.90;;;;;;4959686;28;20041;-84
2023/06/05 12:07:02;;;;;;;5.60;3.30;;;18.80;99.90;;;;;;5005732;28;20038;-84
2023/06/05 12:09:27;;;;;;;6.15;3.72;;;18.90;99.90;;;;;;5004346;28;20048;-84
2023/06/05 12:12:05;;;;;;;5.25;3.22;;;18.80;99.90;;;;;;4973864;28;20562;-85
2023/06/05 12:14:32;;;;;;;6.35;3.80;;;18.80;99.90;;;;;;4980093;28;20138;-84
2023/06/05 12:16:58;;;;;;;6.68;3.58;;;;;;;;;;4988594;28;20683;-83
2023/06/05 12:19:24;;;;;;;5.53;3.10;;;19.10;99.90;;;;;;4988250;28;20446;-83
2023/06/05 12:21:52;;;;;;;7.65;3.58;;;19.00;99.90;;;;;;4993489;28;20250;-84
2023/06/05 12:24:28;;;;;;;7.20;3.63;;;19.10;99.90;;;;;;5007353;28;20046;-84
2023/06/05 12:26:59;;;;;;;6.00;3.60;;;19.10;99.90;;;;;;5005063;28;20054;-84
2023/06/05 12:29:26;;;;;;;6.30;2.83;;;19.10;99.90;;;;;;4985077;28;20057;-84
2023/06/05 12:31:52;;;;;;;5.82;3.28;;;;;;;;;;4988875;28;20034;-85
2023/06/05 12:34:18;;;;;;;6.35;3.58;;;;;;;;;;4979180;28;20117;-84
2023/06/05 12:36:45;;;;;;;6.15;3.22;;;19.20;99.90;;;;;;4973487;28;20054;-85
2023/06/05 12:39:12;;;;;;;10.50;3.47;;;19.20;99.90;;;;;;4969905;28;20046;-85
2023/06/05 12:41:39;;;;;;;5.25;3.13;;;19.20;99.90;;;;;;4962236;28;20042;-85
2023/06/05 12:44:06;;;;;;;5.22;3.88;;;19.30;99.90;;;;;;4988899;28;20480;-85
2023/06/05 12:46:32;;;;;;;4.78;3.05;;;;;;;;;;4972923;28;20143;-85
2023/06/05 12:49:02;;;;;;;6.57;3.60;;;19.30;99.90;;;;;;4972309;28;20042;-84
2023/06/05 12:51:28;;;;;;;7.38;3.70;;;19.30;99.90;;;;;;4970497;28;20045;-86
2023/06/05 12:53:55;;;;;;;5.03;3.25;;;19.40;99.90;;;;;;4989125;28;20038;-85
2023/06/05 12:56:24;;;;;;;5.88;2.85;;;;;;;;;;4976174;28;20053;-86
2023/06/05 12:58:52;;;;;;;4.45;3.25;;;19.60;99.90;;;;;;4972798;28;20045;-86
2023/06/05 13:01:18;;;;;;;6.35;2.80;;;;;;;;;;4966021;28;20081;-86
2023/06/05 13:03:44;;;;;;;7.03;3.00;;;;;;;;;;4986013;28;20042;-86
2023/06/05 13:06:10;;;;;;;6.65;3.10;;;;;;;;;;5005863;28;20077;-87
2023/06/05 13:08:36;;;;;;;7.50;3.40;;;;;;;;;;4997957;28;20049;-85
2023/06/05 13:11:02;;;;;;;4.47;2.60;;;;;;;;;;4965926;28;20403;-86
2023/06/05 13:13:29;;;;;;;5.97;3.40;;;;;;;;;;4987712;28;20123;-86
2023/06/05 13:15:55;;;;;;;6.22;3.78;;;;;;;;;;4991079;28;20045;-88
2023/06/05 13:18:21;;;;;;;5.75;3.08;;;;;;;;;;4984048;28;20041;-86
2023/06/05 13:20:47;;;;;;;5.70;3.47;;;;;;;;;;4973660;28;20042;-87
2023/06/05 13:23:13;;;;;;;7.22;3.10;;;;;;;;;;4986110;28;20042;-88
2023/06/05 13:25:39;;;;;;;7.00;3.10;;;19.50;99.90;;;;;;4972591;28;20069;-86
2023/06/05 13:28:06;;;;;;;6.63;3.20;;;;;;;;;;4974669;28;20082;-87
2023/06/05 13:30:32;;;;;;;4.78;2.70;;;;;;;;;;4995367;28;20046;-86
2023/06/05 13:32:58;;;;;;;4.35;2.90;;;;;;;;;;4983558;28;20073;-86
2023/06/05 13:35:24;;;;;;;4.28;3.05;;;;;;;;;;4974529;28;20038;-86
2023/06/05 13:37:51;;;;;;;5.72;3.10;;;;;;;;;;4961394;28;20104;-86
2023/06/05 13:40:18;;;;;;;4.38;2.78;;;;;;;;;;4970677;28;20078;-86
2023/06/05 13:42:44;;;;;;;4.18;2.88;;;;;;;;;;4967861;28;20130;-87
2023/06/05 13:45:10;;;;;;;4.75;3.17;;;;;;;;;;4977677;28;20061;-85
2023/06/05 13:47:36;;;;;;;4.70;3.15;;;;;;;;;;4963052;28;20606;-86
2023/06/05 13:50:02;;;;;;;5.32;2.88;;;;;;;;;;4947872;28;20062;-87
2023/06/05 13:52:28;;;;;;;4.03;2.85;;;;;;;;;;4958649;28;20042;-87
2023/06/05 13:54:54;;;;;;;4.43;2.53;;;19.70;99.90;;;;;;4956809;28;20042;-86
2023/06/05 13:57:19;;;;;;;5.65;2.40;;;19.80;99.90;;;;;;4960741;28;20046;-85
2023/06/05 13:59:46;;;;;;;5.13;2.65;;;;;;;;;;4966139;28;20140;-86
2023/06/05 14:02:12;;;;;;;4.93;3.05;;;;;;;;;;4958728;28;20085;-86
2023/06/05 14:04:39;;;;;;;4.53;2.72;;;;;;;;;;4968689;28;20043;-87
2023/06/05 14:07:05;;;;;;;5.68;3.17;;;;;;;;;;4964236;28;20037;-85
2023/06/05 14:09:31;;;;;;;4.63;2.83;;;;;;;;;;4993014;28;20095;-85
2023/06/05 14:11:57;;;;;;;7.40;3.13;;;;;;;;;;4984813;28;20061;-86
2023/06/05 14:14:24;;;;;;;5.00;2.92;;;19.60;99.90;;;;;;4969882;28;20152;-85
2023/06/05 14:16:50;;;;;;;3.63;2.50;;;;;;;;;;4964207;28;20640;-85